Time;durP1;ratioP1;P1;durP2;ratioP2;P2;SDS_P1;SDS_P2;PMS_P1;PMS_P2;Temp;Humidity;BMP_temperature;BMP_pressure;BME280_temperature;BME280_humidity;BME280_pressure;Samples;Min_cycle;Max_cycle;Signal;HPM_P1;HPM_P2
2022/10/05 00:01:27;;;;;;;3.40;2.50;;;;;;;8.69;nan;101008.59;5040188;28;20124;-67
2022/10/05 00:04:17;;;;;;;3.85;2.85;;;;;;;8.68;nan;101006.13;5045526;28;20033;-67
2022/10/05 00:06:46;;;;;;;4.97;3.67;;;;;;;8.68;nan;101008.75;5017692;28;20033;-67
2022/10/05 00:09:19;;;;;;;5.60;3.38;;;;;;;8.68;nan;101003.47;5045615;28;20601;-68
2022/10/05 00:11:45;;;;;;;3.22;2.50;;;;;;;8.65;nan;101014.25;5037615;28;20028;-67
2022/10/05 00:14:31;;;;;;;4.75;2.97;;;;;;;8.61;nan;101018.97;5037682;28;20124;-67
2022/10/05 00:16:57;;;;;;;5.25;3.05;;;;;;;8.58;nan;101015.72;5042975;28;20037;-67
2022/10/05 00:19:29;;;;;;;3.15;2.33;;;;;;;8.55;nan;101023.91;5046915;28;20099;-67
2022/10/05 00:22:09;;;;;;;4.25;2.60;;;;;;;8.53;nan;101021.38;5037605;28;20437;-67
2022/10/05 00:24:34;;;;;;;3.60;2.45;;;;;;;8.49;nan;101019.97;5039521;28;20037;-67
2022/10/05 00:27:10;;;;;;;3.13;2.20;;;;;;;8.48;nan;101020.91;5048423;28;20055;-67
2022/10/05 00:29:36;;;;;;;3.20;2.40;;;;;;;8.43;nan;101020.47;5050804;28;20029;-67
2022/10/05 00:32:01;;;;;;;4.03;2.50;;;;;;;8.41;nan;101023.22;5041247;28;20053;-67
2022/10/05 00:34:26;;;;;;;2.30;1.98;;;;;;;8.38;nan;101025.25;5049551;28;20642;-67
2022/10/05 00:36:52;;;;;;;3.50;2.20;;;;;;;8.36;nan;101032.44;5044765;28;20051;-67
2022/10/05 00:39:17;;;;;;;4.18;2.72;;;;;;;8.36;nan;101027.16;5044227;28;20138;-67
2022/10/05 00:42:05;;;;;;;6.97;4.15;;;;;;;8.40;nan;101024.19;5049631;28;20064;-67
2022/10/05 00:44:51;;;;;;;6.25;3.80;;;;;;;8.41;nan;101028.50;5039463;28;20037;-67
2022/10/05 00:47:49;;;;;;;4.50;3.10;;;;;;;8.40;nan;101023.38;5042023;28;20261;-67
2022/10/05 00:50:37;;;;;;;6.22;3.25;;;;;;;8.39;nan;101024.28;5038666;28;20125;-68
2022/10/05 00:53:22;;;;;;;5.38;3.67;;;;;;;8.40;nan;101005.75;5040863;28;20044;-67
2022/10/05 00:55:54;;;;;;;4.65;3.20;;;;;;;8.39;nan;101006.69;5048179;28;20545;-67
2022/10/05 00:58:49;;;;;;;5.95;3.70;;;;;;;8.41;nan;101006.56;5042103;28;20128;-67
2022/10/05 01:01:24;;;;;;;5.13;3.95;;;;;;;8.42;nan;101005.63;5039886;28;20518;-67
2022/10/05 01:03:59;;;;;;;5.78;3.63;;;;;;;8.40;nan;100995.22;5044584;28;20383;-67
2022/10/05 01:06:30;;;;;;;4.93;3.38;;;;;;;8.39;nan;100984.75;5032758;28;20046;-67
2022/10/05 01:09:07;;;;;;;;;;;;;;;8.36;nan;100983.19;5050638;28;20028;-67
2022/10/05 01:11:47;;;;;;;4.18;3.22;;;;;;;8.34;nan;100973.75;5036165;28;19916;-67
2022/10/05 01:14:24;;;;;;;4.30;2.95;;;;;;;8.27;nan;100974.28;5048290;28;20233;-67
2022/10/05 01:16:57;;;;;;;3.58;2.60;;;;;;;8.25;nan;100978.00;5035150;28;20545;-67
2022/10/05 01:19:49;;;;;;;4.18;2.60;;;;;;;8.22;nan;100981.72;5048182;28;20138;-67
2022/10/05 01:22:56;;;;;;;3.33;2.40;;;;;;;8.17;nan;100978.59;5035980;28;20065;-67
2022/10/05 01:25:39;;;;;;;3.35;2.20;;;;;;;8.14;nan;100980.66;5049536;28;20064;-67
2022/10/05 01:28:22;;;;;;;3.38;2.45;;;;;;;8.08;nan;100980.22;5042825;28;20033;-67
2022/10/05 01:30:59;;;;;;;3.50;2.58;;;;;;;8.07;nan;100980.31;5037588;28;20033;-67
2022/10/05 01:33:35;;;;;;;5.15;2.58;;;;;;;8.05;nan;100976.97;5033089;28;20038;-67
2022/10/05 01:36:11;;;;;;;3.45;2.70;;;;;;;8.03;nan;100982.38;5049643;28;20052;-67
2022/10/05 01:38:58;;;;;;;3.40;2.42;;;;;;;8.02;nan;100979.88;5029011;28;20409;-67
2022/10/05 01:41:27;;;;;;;3.13;2.20;;;;;;;7.98;nan;100984.53;5047057;28;20048;-67
2022/10/05 01:44:00;;;;;;;3.17;2.38;;;;;;;7.98;nan;100984.53;5039717;28;20044;-67
2022/10/05 01:47:10;;;;;;;3.40;2.20;;;;;;;7.94;nan;100988.38;5045441;28;20044;-67
2022/10/05 01:49:44;;;;;;;3.55;2.17;;;;;;;7.91;nan;100988.63;5048232;28;20076;-67
2022/10/05 01:52:35;;;;;;;2.70;2.13;;;;;;;7.91;nan;100995.69;5040284;28;20028;-67
2022/10/05 01:55:00;;;;;;;3.60;2.38;;;;;;;7.86;nan;100983.75;5047820;28;20121;-67
2022/10/05 01:57:47;;;;;;;2.83;2.17;;;;;;;7.85;nan;100986.50;5040728;28;20120;-67
2022/10/05 02:00:16;;;;;;;3.55;2.47;;;;;;;7.84;nan;100990.06;5044589;28;20033;-67
2022/10/05 02:02:46;;;;;;;3.28;2.60;;;;;;;7.82;nan;100997.28;5042085;28;20171;-67
2022/10/05 02:05:20;;;;;;;4.22;3.05;;;;;;;7.80;nan;100986.84;5045989;28;20450;-67
2022/10/05 02:08:09;;;;;;;3.40;2.47;;;;;;;7.77;nan;100989.75;5042059;28;20086;-67
2022/10/05 02:10:48;;;;;;;4.20;2.72;;;;;;;7.74;nan;100995.22;5045000;28;20485;-67
2022/10/05 02:13:20;;;;;;;3.25;2.53;;;;;;;7.72;nan;100998.94;5042983;28;20033;-67
2022/10/05 02:15:53;;;;;;;4.30;2.95;;;;;;;7.71;nan;100989.38;5046492;28;20131;-67
2022/10/05 02:18:29;;;;;;;5.50;3.63;;;;;;;7.76;nan;100995.13;5044372;28;20437;-67
2022/10/05 02:20:57;;;;;;;6.28;3.75;;;;;;;7.81;nan;100990.31;5047619;28;20033;-67
2022/10/05 02:23:30;;;;;;;4.50;3.50;;;;;;;7.84;nan;100992.69;5039443;28;20045;-67
2022/10/05 02:25:57;;;;;;;5.30;3.92;;;;;;;7.86;nan;100980.25;5047539;28;20033;-67
2022/10/05 02:28:46;;;;;;;6.82;4.10;;;;;;;7.90;nan;100970.31;5038535;28;20283;-67
2022/10/05 02:31:18;;;;;;;4.20;3.45;;;;;;;7.88;nan;100960.72;5040216;28;20025;-67
2022/10/05 02:33:43;;;;;;;4.80;3.70;;;;;;;7.90;nan;100955.34;5033142;28;20028;-67
2022/10/05 02:36:31;;;;;;;6.85;3.85;;;;;;;7.92;nan;100950.81;5044396;28;20037;-67
2022/10/05 02:39:13;;;;;;;5.32;3.88;;;;;;;7.96;nan;100951.38;5039944;28;20036;-67
2022/10/05 02:41:50;;;;;;;6.25;3.97;;;;;;;7.99;nan;100940.63;5045738;28;20230;-67
2022/10/05 02:44:18;;;;;;;5.90;4.00;;;;;;;8.02;nan;100932.47;5039120;28;20044;-67
2022/10/05 02:47:08;;;;;;;6.10;3.75;;;;;;;8.06;nan;100926.00;5045520;28;20037;-67
2022/10/05 02:49:43;;;;;;;5.53;4.20;;;;;;;8.12;nan;100922.84;5039029;28;20029;-67
2022/10/05 02:52:24;;;;;;;6.93;4.55;;;;;;;8.20;nan;100930.97;5046071;28;20057;-67
2022/10/05 02:54:55;;;;;;;7.87;5.37;;;;;;;8.26;nan;100924.34;5041984;28;20033;-67
2022/10/05 02:57:35;;;;;;;5.93;4.55;;;;;;;8.30;nan;100931.84;5038052;28;20343;-67
2022/10/05 03:00:12;;;;;;;6.40;4.30;;;;;;;8.34;nan;100923.69;5044782;28;20552;-67
2022/10/05 03:02:48;;;;;;;8.20;4.90;;;;;;;8.38;nan;100919.84;5038152;28;20568;-67
2022/10/05 03:05:23;;;;;;;5.75;4.85;;;;;;;8.41;nan;100924.88;5040363;28;20033;-67
2022/10/05 03:08:01;;;;;;;6.28;4.32;;;;;;;8.42;nan;100919.50;5041853;28;20090;-67
2022/10/05 03:10:44;;;;;;;8.63;5.05;;;;;;;8.47;nan;100919.13;5045943;28;20446;-67
2022/10/05 03:13:34;;;;;;;7.55;5.07;;;;;;;8.50;nan;100910.94;5039284;28;20378;-67
2022/10/05 03:16:14;;;;;;;7.78;5.90;;;;;;;8.55;nan;100903.47;5046604;28;20396;-67
2022/10/05 03:19:11;;;;;;;7.78;5.00;;;;;;;8.59;nan;100904.06;5033280;28;20033;-67
2022/10/05 03:21:42;;;;;;;6.72;5.15;;;;;;;8.59;nan;100901.44;5036655;28;20033;-67
2022/10/05 03:24:56;;;;;;;7.55;4.30;;;;;;;8.59;nan;100898.78;5043947;28;20041;-67
2022/10/05 03:27:53;;;;;;;5.78;4.30;;;;;;;8.58;nan;100897.09;5028048;28;20401;-67
2022/10/05 03:30:22;;;;;;;6.07;4.03;;;;;;;8.57;nan;100892.81;5042045;28;20233;-67
2022/10/05 03:33:13;;;;;;;6.03;3.92;;;;;;;8.49;nan;100896.94;5035430;28;20045;-67
2022/10/05 03:36:08;;;;;;;6.40;4.68;;;;;;;8.42;nan;100897.59;5029826;28;20034;-67
2022/10/05 03:38:46;;;;;;;6.40;4.50;;;;;;;8.41;nan;100901.16;5032843;28;20033;-67
2022/10/05 03:41:21;;;;;;;8.95;5.70;;;;;;;8.47;nan;100892.75;5038016;28;20120;-67
2022/10/05 03:44:05;;;;;;;8.70;5.45;;;;;;;8.52;nan;100905.56;5039469;28;20040;-67
2022/10/05 03:46:49;;;;;;;7.57;5.28;;;;;;;8.45;nan;100913.97;5040724;28;20120;-67
2022/10/05 03:49:53;;;;;;;7.07;4.80;;;;;;;8.38;nan;100914.56;5037310;28;20060;-67
2022/10/05 03:52:35;;;;;;;6.22;4.70;;;;;;;8.31;nan;100914.25;5046387;28;20199;-67
2022/10/05 03:55:12;;;;;;;6.43;5.13;;;;;;;8.27;nan;100913.69;5026530;28;20033;-67
2022/10/05 03:57:39;;;;;;;6.75;5.10;;;;;;;8.29;nan;100922.28;5034214;28;20162;-67
2022/10/05 04:00:14;;;;;;;7.22;5.60;;;;;;;8.32;nan;100928.25;5044033;28;20126;-67
2022/10/05 04:02:46;;;;;;;8.40;5.82;;;;;;;8.33;nan;100924.66;5039597;28;20044;-67
2022/10/05 04:05:23;;;;;;;7.05;5.50;;;;;;;8.37;nan;100931.38;5042829;28;20346;-67
2022/10/05 04:08:06;;;;;;;8.10;5.50;;;;;;;8.36;nan;100927.88;5039952;28;20053;-67
2022/10/05 04:10:43;;;;;;;10.93;7.15;;;;;;;8.38;nan;100928.59;5050664;28;20033;-67
2022/10/05 04:13:20;;;;;;;8.38;6.32;;;;;;;8.38;nan;100927.75;5046159;28;20029;-67
2022/10/05 04:16:01;;;;;;;6.90;5.05;;;;;;;8.35;nan;100923.56;5045819;28;20065;-67
2022/10/05 04:18:29;;;;;;;7.60;5.68;;;;;;;8.32;nan;100922.97;5041220;28;20041;-67
2022/10/05 04:21:00;;;;;;;8.18;5.97;;;;;;;8.32;nan;100931.75;5050987;28;20094;-67
2022/10/05 04:23:31;;;;;;;9.37;6.43;;;;;;;8.30;nan;100934.50;5042037;28;20045;-67
2022/10/05 04:26:04;;;;;;;9.07;6.35;;;;;;;8.28;nan;100927.69;5051027;28;20051;-67
2022/10/05 04:28:40;;;;;;;8.57;6.25;;;;;;;8.24;nan;100924.44;5040952;28;20127;-67
2022/10/05 04:31:11;;;;;;;11.55;7.00;;;;;;;8.25;nan;100928.78;5051302;28;20037;-67
2022/10/05 04:33:36;;;;;;;16.45;9.25;;;;;;;8.33;nan;100929.94;5036181;28;20033;-67
2022/10/05 04:36:25;;;;;;;11.80;9.05;;;;;;;8.38;nan;100933.84;5050481;28;20120;-68
2022/10/05 04:39:00;;;;;;;10.75;7.43;;;;;;;8.39;nan;100924.13;5036190;28;20120;-67
2022/10/05 04:41:50;;;;;;;11.20;7.40;;;;;;;8.39;nan;100929.41;5048638;28;20087;-67
2022/10/05 04:44:25;;;;;;;10.73;7.53;;;;;;;8.38;nan;100933.84;5039632;28;20042;-67
2022/10/05 04:47:18;;;;;;;12.65;8.60;;;;;;;8.41;nan;100930.16;5050523;28;20275;-67
2022/10/05 04:49:52;;;;;;;11.88;8.75;;;;;;;8.46;nan;100935.88;5041192;28;20410;-67
2022/10/05 04:52:50;;;;;;;12.13;8.27;;;;;;;8.49;nan;100933.84;5048081;28;20037;-67
2022/10/05 04:55:29;;;;;;;9.45;7.22;;;;;;;8.49;nan;100935.63;5040421;28;20449;-67
2022/10/05 04:58:05;;;;;;;8.98;6.60;;;;;;;8.46;nan;100933.25;5050678;28;20044;-67
2022/10/05 05:00:36;;;;;;;10.13;7.10;;;;;;;8.43;nan;100942.25;5039899;28;20512;-67
2022/10/05 05:03:38;;;;;;;10.93;7.93;;;;;;;8.43;nan;100936.13;5050223;28;20025;-67
2022/10/05 05:06:35;;;;;;;11.05;6.90;;;;;;;8.42;nan;100937.13;5040994;28;20030;-67
2022/10/05 05:09:25;;;;;;;10.75;6.82;;;;;;;8.40;nan;100934.59;5045069;28;20033;-67
2022/10/05 05:12:09;;;;;;;7.85;5.85;;;;;;;8.35;nan;100942.03;5031998;28;20485;-67
2022/10/05 05:15:10;;;;;;;10.23;6.72;;;;;;;8.33;nan;100943.13;5041967;28;20029;-67
2022/10/05 05:17:59;;;;;;;9.52;6.50;;;;;;;8.25;nan;100946.38;5036028;28;20136;-67
2022/10/05 05:21:05;;;;;;;13.73;8.40;;;;;;;8.26;nan;100948.03;5048217;28;20037;-67
2022/10/05 05:23:39;;;;;;;12.32;9.02;;;;;;;8.25;nan;100955.13;5035065;28;20079;-67
2022/10/05 05:26:20;;;;;;;13.20;10.00;;;;;;;8.27;nan;100955.84;5048329;28;20080;-67
2022/10/05 05:29:12;;;;;;;14.73;9.90;;;;;;;8.29;nan;100959.19;5040716;28;20498;-67
2022/10/05 05:31:50;;;;;;;14.00;10.07;;;;;;;8.35;nan;100959.63;5046926;28;20284;-68
2022/10/05 05:34:30;;;;;;;13.48;9.07;;;;;;;8.40;nan;100966.22;5044631;28;20094;-67
2022/10/05 05:37:29;;;;;;;14.35;10.38;;;;;;;8.46;nan;100978.03;5046507;28;20037;-67
2022/10/05 05:40:02;;;;;;;12.43;9.25;;;;;;;8.46;nan;100980.69;5041733;28;20029;-67
2022/10/05 05:42:39;;;;;;;11.55;8.40;;;;;;;8.46;nan;100989.44;5040175;28;20057;-67
2022/10/05 05:45:22;;;;;;;14.27;9.98;;;;;;;8.51;nan;100994.34;5044499;28;20029;-68
2022/10/05 05:47:53;;;;;;;14.07;9.52;;;;;;;8.64;nan;100994.97;5037863;28;20041;-67
2022/10/05 05:50:31;;;;;;;14.68;10.00;;;;;;;8.70;nan;100993.66;5045549;28;20045;-67
2022/10/05 05:53:16;;;;;;;;;;;;;;;8.75;nan;101003.78;5041023;28;20035;-67
2022/10/05 05:55:49;;;;;;;13.68;9.20;;;;;;;8.77;nan;101002.72;5038008;28;19962;-67
2022/10/05 05:58:33;;;;;;;12.63;8.80;;;;;;;8.83;nan;101001.34;5036332;28;20343;-67
2022/10/05 06:01:18;;;;;;;11.70;8.93;;;;;;;8.86;nan;100995.81;5037837;28;20502;-67
2022/10/05 06:03:53;;;;;;;13.77;9.90;;;;;;;8.93;nan;100999.59;5031134;28;20067;-67
2022/10/05 06:06:22;;;;;;;12.00;8.20;;;;;;;9.03;nan;101008.41;5034350;28;20038;-67
2022/10/05 06:09:03;;;;;;;11.40;8.35;;;;;;;9.10;nan;101009.56;5041095;28;20086;-67
2022/10/05 06:11:35;;;;;;;10.77;8.77;;;;;;;9.18;nan;101011.56;5048356;28;20063;-67
2022/10/05 06:14:08;;;;;;;13.40;9.75;;;;;;;9.39;nan;101008.03;5041799;28;20033;-67
2022/10/05 06:16:44;;;;;;;11.98;9.18;;;;;;;9.53;nan;101005.91;5029609;28;20040;-67
2022/10/05 06:19:13;;;;;;;14.98;11.07;;;;;;;9.73;nan;101012.06;5047429;28;20112;-68
2022/10/05 06:21:46;;;;;;;15.93;10.80;;;;;;;9.94;nan;101013.81;5044462;28;20030;-70
2022/10/05 06:24:19;;;;;;;13.07;9.90;;;;;;;10.13;nan;101015.63;5045803;28;20041;-67
2022/10/05 06:27:22;;;;;;;15.60;10.77;;;;;;;10.40;nan;101018.47;5043595;28;20033;-67
2022/10/05 06:30:04;;;;;;;10.25;8.45;;;;;;;10.60;nan;101019.28;5048326;28;20033;-67
2022/10/05 06:32:32;;;;;;;11.45;7.47;;;;;;;10.71;nan;101023.63;5037296;28;20044;-68
2022/10/05 06:35:39;;;;;;;9.55;7.43;;;;;;;10.91;nan;101018.31;5047551;28;20052;-67
2022/10/05 06:38:27;;;;;;;11.88;9.48;;;;;;;11.24;nan;101023.09;5040381;28;20041;-68
2022/10/05 06:41:05;;;;;;;12.75;9.45;;;;;;;11.63;nan;101030.06;5037273;28;20060;-68
2022/10/05 06:43:56;;;;;;;14.93;8.90;;;;;;;12.07;nan;101031.13;5055399;28;20498;-68
2022/10/05 06:46:28;;;;;;;13.35;8.93;;;;;;;12.42;nan;101025.97;5044954;28;20067;-68
2022/10/05 06:48:59;;;;;;;;;;;;;;;12.72;nan;101017.63;5032068;28;20041;-68
2022/10/05 06:51:46;;;;;;;10.68;8.77;;;;;;;13.14;nan;101014.28;5033966;28;19916;-68
2022/10/05 06:54:26;;;;;;;11.05;8.20;;;;;;;13.50;nan;101016.84;5047532;28;20044;-68
2022/10/05 06:57:14;;;;;;;10.27;7.70;;;;;;;13.90;nan;101019.84;5038072;28;20119;-68
2022/10/05 06:59:52;;;;;;;;;;;;;;;14.32;nan;101016.25;5036013;28;20064;-68
2022/10/05 07:02:29;;;;;;;10.93;7.38;;;;;;;14.72;nan;101012.00;5023786;28;19920;-68
2022/10/05 07:05:28;;;;;;;9.07;6.30;;;;;;;15.10;nan;101010.44;5042706;28;20044;-69
2022/10/05 07:07:59;;;;;;;;;;;;;;;15.16;nan;101007.13;5032545;28;20516;-68
2022/10/05 07:10:40;;;;;;;;;;;;;;;15.11;nan;101003.28;5047916;28;19963;-68
2022/10/05 07:13:14;;;;;;;8.05;6.45;;;;;;;14.85;nan;101004.34;5032305;28;19916;-68
2022/10/05 07:16:00;;;;;;;10.60;7.13;;;;;;;14.60;nan;100999.00;5046722;28;20352;-68
2022/10/05 07:18:53;;;;;;;9.18;6.22;;;;;;;14.60;nan;100999.00;5038423;28;20045;-68
2022/10/05 07:21:34;;;;;;;7.97;6.40;;;;;;;14.65;nan;101003.84;5038282;28;20038;-68
2022/10/05 07:24:24;;;;;;;9.53;6.13;;;;;;;14.72;nan;101004.84;5034939;28;20037;-68
2022/10/05 07:27:03;;;;;;;7.78;5.63;;;;;;;14.75;nan;101004.50;5043846;28;20275;-68
2022/10/05 07:29:54;;;;;;;6.90;5.40;;;;;;;14.81;nan;101003.84;5038086;28;20481;-68
2022/10/05 07:32:28;;;;;;;6.63;5.35;;;;;;;14.91;nan;101003.66;5045346;28;20386;-68
2022/10/05 07:35:03;;;;;;;6.93;5.80;;;;;;;15.06;nan;101009.97;5040528;28;20061;-68
2022/10/05 07:37:53;;;;;;;6.88;5.78;;;;;;;15.16;nan;101008.94;5035968;28;20063;-68
2022/10/05 07:40:46;;;;;;;7.20;4.90;;;;;;;15.28;nan;101008.41;5027991;28;20510;-68
2022/10/05 07:43:25;;;;;;;7.25;5.60;;;;;;;15.45;nan;101011.84;5041440;28;20041;-68
2022/10/05 07:45:57;;;;;;;7.28;5.80;;;;;;;15.61;nan;101013.66;5041367;28;20067;-68
2022/10/05 07:48:35;;;;;;;7.30;5.13;;;;;;;15.68;nan;101019.94;5028832;28;20052;-68
2022/10/05 07:51:21;;;;;;;8.07;4.82;;;;;;;15.81;nan;101029.25;5033887;28;20037;-68
2022/10/05 07:54:11;;;;;;;8.13;5.65;;;;;;;15.74;nan;101022.94;5041563;28;20043;-68
2022/10/05 07:56:42;;;;;;;7.00;5.53;;;;;;;15.72;nan;101020.44;5037883;28;20037;-68
2022/10/05 07:59:37;;;;;;;6.55;5.30;;;;;;;15.80;nan;101020.44;5041977;28;20123;-68
2022/10/05 08:02:13;;;;;;;6.20;4.85;;;;;;;15.96;nan;101019.50;5025673;28;20051;-68
2022/10/05 08:04:54;;;;;;;7.03;4.80;;;;;;;15.96;nan;101027.50;5012032;28;20037;-68
2022/10/05 08:07:20;;;;;;;5.70;4.75;;;;;;;15.85;nan;101015.41;5035345;28;20041;-68
2022/10/05 08:09:58;;;;;;;6.30;5.32;;;;;;;15.85;nan;101012.72;5040921;28;20493;-68
2022/10/05 08:12:30;;;;;;;5.38;4.22;;;;;;;16.09;nan;101021.59;5052522;28;20406;-68
2022/10/05 08:14:57;;;;;;;6.30;4.35;;;;;;;16.52;nan;101013.97;5036481;28;20036;-68
2022/10/05 08:17:38;;;;;;;5.75;4.20;;;;;;;17.20;nan;101013.03;5024624;28;20042;-68
2022/10/05 08:20:36;;;;;;;5.18;3.78;;;;;;;17.89;nan;101008.41;5038340;28;20029;-69
2022/10/05 08:23:13;;;;;;;;;;;;;;;18.60;nan;101001.31;5038545;28;20037;-68
2022/10/05 08:25:55;;;;;;;4.60;3.30;;;;;;;19.27;nan;100827.53;5028662;28;19996;-69
2022/10/05 08:28:34;;;;;;;4.78;3.33;;;;;;;19.72;nan;100817.13;5026992;28;20033;-69
2022/10/05 08:31:02;;;;;;;3.78;3.13;;;;;;;;;;5039190;28;20442;-69
2022/10/05 08:33:38;;;;;;;4.32;3.35;;;;;;;20.50;nan;101021.47;5043453;28;20405;-68
2022/10/05 08:36:09;;;;;;;4.60;3.30;;;;;;;20.87;nan;100997.72;5033520;28;20477;-69
2022/10/05 08:38:36;;;;;;;4.88;3.50;;;;;;;21.11;nan;100993.53;5007522;28;20041;-69
2022/10/05 08:41:22;;;;;;;5.03;3.05;;;;;;;21.57;nan;100998.03;5031461;28;20287;-69
2022/10/05 08:44:00;;;;;;;4.15;3.10;;;;;;;22.07;nan;101008.13;5019453;28;20065;-69
2022/10/05 08:46:31;;;;;;;6.38;3.70;;;;;;;22.30;nan;100998.69;5038322;28;20052;-69
2022/10/05 08:49:11;;;;;;;6.07;3.63;;;;;;;22.45;nan;101000.03;5034355;28;20073;-69
2022/10/05 08:51:58;;;;;;;4.90;3.03;;;;;;;22.56;nan;101006.59;5033470;28;20128;-69
2022/10/05 08:54:52;;;;;;;5.13;3.40;;;;;;;22.70;nan;101001.91;5031321;28;20029;-69
2022/10/05 08:57:48;;;;;;;6.90;4.18;;;;;;;22.95;nan;101004.56;5033018;28;20152;-69
2022/10/05 09:00:22;;;;;;;5.03;3.30;;;;;;;23.56;nan;101002.94;5039630;28;20061;-69
2022/10/05 09:03:24;;;;;;;5.30;3.70;;;;;;;23.61;nan;101002.25;5034675;28;20191;-69
2022/10/05 09:06:02;;;;;;;3.97;3.47;;;;;;;24.04;nan;101006.69;5032214;28;20033;-69
2022/10/05 09:08:40;;;;;;;5.53;3.55;;;;;;;24.08;nan;101000.59;5037350;28;20042;-68
2022/10/05 09:11:11;;;;;;;4.80;3.78;;;;;;;24.50;nan;100988.97;5037690;28;20127;-69
2022/10/05 09:13:56;;;;;;;4.47;3.30;;;;;;;24.91;nan;101001.59;5027397;28;20043;-69
2022/10/05 09:16:30;;;;;;;5.03;3.42;;;;;;;25.25;nan;100984.78;5018424;28;20050;-69
2022/10/05 09:19:21;;;;;;;5.22;3.55;;;;;;;25.43;nan;100990.88;5035492;28;20045;-69
2022/10/05 09:21:57;;;;;;;5.20;4.03;;;;;;;25.34;nan;100994.19;5024531;28;20043;-69
2022/10/05 09:24:32;;;;;;;4.95;3.80;;;;;;;25.36;nan;100994.75;5026168;28;20046;-69
2022/10/05 09:27:15;;;;;;;4.78;3.20;;;;;;;25.62;nan;100996.09;5041726;28;20112;-68
2022/10/05 09:30:19;;;;;;;5.93;3.40;;;;;;;25.87;nan;101003.94;5021411;28;20567;-68
2022/10/05 09:33:07;;;;;;;6.18;3.55;;;;;;;26.00;nan;100990.09;5034926;28;20140;-68
2022/10/05 09:36:01;;;;;;;5.95;3.40;;;;;;;26.32;nan;101000.41;5041150;28;20475;-68
2022/10/05 09:38:54;;;;;;;4.53;3.20;;;;;;;26.79;nan;100989.28;5035352;28;20052;-69
2022/10/05 09:41:32;;;;;;;5.05;3.55;;;;;;;26.82;nan;100988.78;5038766;28;20056;-69
2022/10/05 09:44:22;;;;;;;5.03;3.50;;;;;;;26.93;nan;100997.88;5045327;28;20501;-68
2022/10/05 09:47:22;;;;;;;4.97;3.33;;;;;;;27.11;nan;100991.34;5039160;28;20065;-68
2022/10/05 09:50:08;;;;;;;4.88;3.17;;;;;;;27.40;nan;100986.59;5035418;28;20120;-69
2022/10/05 09:53:09;;;;;;;4.25;3.03;;;;;;;27.82;nan;100985.19;5036852;28;20395;-68
2022/10/05 09:56:05;;;;;;;4.57;3.00;;;;;;;27.99;nan;100985.09;5027795;28;20352;-68
2022/10/05 09:58:58;;;;;;;7.10;2.97;;;;;;;28.10;nan;100979.50;5038263;28;20390;-68
2022/10/05 10:01:50;;;;;;;7.28;3.22;;;;;;;28.38;nan;100978.38;5023402;28;20033;-68
2022/10/05 10:04:37;;;;;;;4.88;2.92;;;;;;;28.54;nan;100975.81;5028485;28;20063;-68
2022/10/05 10:07:41;;;;;;;4.32;2.60;;;;;;;28.99;nan;100969.03;5032359;28;20475;-68
2022/10/05 10:10:32;;;;;;;3.78;2.50;;;;;;;29.12;nan;100976.72;5032621;28;20029;-69
2022/10/05 10:13:20;;;;;;;6.95;2.92;;;;;;;29.76;nan;100966.66;5018417;28;20334;-68
2022/10/05 10:16:13;;;;;;;6.13;2.70;;;;;;;30.01;nan;100963.97;5030602;28;20490;-69
2022/10/05 10:18:47;;;;;;;4.97;2.72;;;;;;;29.79;nan;100964.19;5027391;28;20033;-69
2022/10/05 10:21:50;;;;;;;3.88;2.90;;;;;;;29.90;nan;100959.59;5037502;28;20060;-69
2022/10/05 10:24:41;;;;;;;3.63;2.40;;;;;;;30.38;nan;100959.38;5028467;28;20425;-69
2022/10/05 10:27:30;;;;;;;2.33;1.90;;;;;;;30.34;nan;100961.00;5038632;28;21111;-69
2022/10/05 10:30:17;;;;;;;;;;;;;;;30.27;nan;100962.09;5023776;28;20038;-68
2022/10/05 10:33:20;;;;;;;4.68;2.42;;;;;;;30.62;nan;100954.97;5036857;28;19959;-69
2022/10/05 10:36:11;;;;;;;2.47;1.98;;;;;;;31.11;nan;100953.50;5027969;28;20803;-69
2022/10/05 10:38:43;;;;;;;5.25;2.42;;;;;;;31.07;nan;100947.78;5039319;28;20387;-69
2022/10/05 10:41:38;;;;;;;3.00;2.20;;;;;;;31.10;nan;100943.66;5024695;28;20462;-69
2022/10/05 10:44:33;;;;;;;2.97;2.00;;;;;;;31.47;nan;100950.63;5023021;28;20670;-70
2022/10/05 10:47:34;;;;;;;3.40;1.98;;;;;;;31.96;nan;100944.31;5033888;28;20449;-69
2022/10/05 10:50:18;;;;;;;2.85;1.95;;;;;;;32.01;nan;100949.75;5035946;28;20418;-69
2022/10/05 10:53:21;;;;;;;3.47;1.70;;;;;;;32.61;nan;100944.06;5030386;28;20033;-69
2022/10/05 10:56:08;;;;;;;4.18;2.10;;;;;;;33.04;nan;100935.94;5034777;28;20119;-69
2022/10/05 10:58:57;;;;;;;2.20;1.70;;;;;;;33.34;nan;100939.38;5039022;28;20409;-69
2022/10/05 11:01:48;;;;;;;2.17;1.63;;;;;;;33.47;nan;100933.19;5030557;28;20060;-69
2022/10/05 11:04:22;;;;;;;2.33;1.60;;;;;;;33.50;nan;100932.56;5027157;28;20046;-69
2022/10/05 11:07:12;;;;;;;2.25;1.60;;;;;;;33.17;nan;100931.66;5037800;28;20025;-69
2022/10/05 11:09:52;;;;;;;3.13;1.80;;;;;;;33.34;nan;100922.94;5033851;28;20053;-69
2022/10/05 11:12:26;;;;;;;3.13;1.67;;;;;;;33.20;nan;100934.63;5043348;28;20402;-69
2022/10/05 11:15:12;;;;;;;3.42;1.70;;;;;;;33.07;nan;100923.56;5035073;28;20033;-69
2022/10/05 11:17:53;;;;;;;4.32;2.13;;;;;;;32.88;nan;100921.56;5045610;28;20520;-69
2022/10/05 11:20:31;;;;;;;3.03;1.75;;;;;;;33.02;nan;100926.34;5043472;28;20095;-69
2022/10/05 11:23:04;;;;;;;2.40;1.70;;;;;;;32.70;nan;100919.59;5031427;28;20033;-69
2022/10/05 11:25:45;;;;;;;4.85;1.98;;;;;;;31.37;nan;100912.38;5033702;28;20037;-69
2022/10/05 11:28:26;;;;;;;4.60;1.80;;;;;;;29.78;nan;100918.13;5029610;28;20056;-69
2022/10/05 11:31:32;;;;;;;3.78;2.13;;;;;;;28.51;nan;100911.88;5029279;28;20112;-69
2022/10/05 11:33:57;;;;;;;4.88;1.90;;;;;;;27.30;nan;100907.72;5044106;28;20302;-69
2022/10/05 11:36:45;;;;;;;3.17;1.90;;;;;;;26.55;nan;100898.28;5044959;28;20136;-69
2022/10/05 11:39:32;;;;;;;3.13;1.70;;;;;;;26.25;nan;100897.56;5040510;28;20595;-69
2022/10/05 11:42:46;;;;;;;2.72;1.67;;;;;;;25.58;nan;100900.97;5014524;28;20041;-69
2022/10/05 11:45:56;;;;;;;4.38;2.30;;;;;;;25.12;nan;100891.09;5036536;28;20069;-69
2022/10/05 11:48:40;;;;;;;3.95;2.20;;;;;;;24.75;nan;100894.94;5027276;28;20037;-69
2022/10/05 11:51:26;;;;;;;5.43;1.90;;;;;;;24.48;nan;100880.25;5045024;28;20406;-69
2022/10/05 11:54:16;;;;;;;4.25;2.20;;;;;;;24.01;nan;100886.41;5011287;28;20100;-69
2022/10/05 11:56:48;;;;;;;4.30;2.10;;;;;;;23.72;nan;100878.09;5032196;28;20462;-69
2022/10/05 11:59:33;;;;;;;7.07;2.25;;;;;;;23.48;nan;100871.81;5030069;28;20033;-68
2022/10/05 12:02:17;;;;;;;6.38;1.90;;;;;;;23.42;nan;100855.69;5036093;28;20033;-69
2022/10/05 12:05:10;;;;;;;2.95;1.83;;;;;;;23.34;nan;100864.13;5021893;28;20033;-69
2022/10/05 12:07:57;;;;;;;3.95;2.03;;;;;;;23.13;nan;100857.34;5030141;28;20151;-69
2022/10/05 12:10:33;;;;;;;4.35;2.10;;;;;;;23.06;nan;100852.00;5043808;28;20037;-69
2022/10/05 12:13:26;;;;;;;4.82;2.00;;;;;;;22.88;nan;100850.09;5035432;28;20411;-69
2022/10/05 12:16:04;;;;;;;7.97;2.53;;;;;;;22.67;nan;100852.22;5034327;28;20485;-68
2022/10/05 12:18:30;;;;;;;5.03;1.90;;;;;;;22.52;nan;100846.34;5044562;28;20037;-68
2022/10/05 12:21:11;;;;;;;3.40;1.70;;;;;;;22.34;nan;100835.56;5035152;28;20505;-69
2022/10/05 12:23:55;;;;;;;3.58;1.90;;;;;;;22.25;nan;100843.91;5036234;28;20041;-69
2022/10/05 12:26:29;;;;;;;4.40;1.80;;;;;;;22.15;nan;100834.66;5032669;28;20402;-68
2022/10/05 12:29:06;;;;;;;3.92;2.00;;;;;;;22.06;nan;100839.50;5050170;28;20134;-68
2022/10/05 12:31:40;;;;;;;;;;;;;;;22.02;nan;100835.59;5043700;28;20544;-68
2022/10/05 12:34:05;;;;;;;;;;;;;;;21.99;nan;100833.34;5035156;28;19963;-68
2022/10/05 12:36:36;;;;;;;;;;;;;;;22.02;nan;100827.50;5044388;28;20419;-69
2022/10/05 12:39:31;;;;;;;4.22;1.80;;;;;;;22.09;nan;100827.47;5038088;28;19917;-68
2022/10/05 12:42:11;;;;;;;4.45;2.08;;;;;;;22.08;nan;100823.13;5030406;28;20057;-69
2022/10/05 12:44:49;;;;;;;2.90;1.95;;;;;;;22.13;nan;100826.81;5024514;28;20025;-69
2022/10/05 12:47:26;;;;;;;4.13;2.20;;;;;;;22.13;nan;100818.72;5035155;28;20069;-69
2022/10/05 12:50:14;;;;;;;6.85;2.28;;;;;;;22.12;nan;100817.09;5035311;28;20042;-69
2022/10/05 12:53:03;;;;;;;8.95;2.65;;;;;;;22.03;nan;100818.41;5034593;28;20038;-68
2022/10/05 12:55:41;;;;;;;6.55;2.53;;;;;;;21.97;nan;100812.00;5039304;28;20028;-68